Wetterdaten: Woche 27.06.11 - 03.07.11 (KW26)
Datum Zeit Temp. A. Feuchte A. Luftdruck Regen Wind Richtung Taupunkt Windchill Windben
27.06.2011 00:00 16,2 C 81 % 1022,8 hPa 0,0 l/m 0,0 km/h N 13,0 C 16,2 C 0,4 km/h
27.06.2011 01:00 15,5 C 82 % 1022,8 hPa 0,0 l/m 0,0 km/h N 12,4 C 15,5 C 0,0 km/h
27.06.2011 02:00 14,6 C 82 % 1022,7 hPa 0,0 l/m 0,0 km/h N 11,5 C 14,6 C 0,0 km/h
27.06.2011 03:00 14,0 C 82 % 1022,7 hPa 0,0 l/m 0,0 km/h N 11,0 C 14,0 C 0,4 km/h
27.06.2011 04:00 13,4 C 82 % 1022,7 hPa 0,0 l/m 0,0 km/h N 10,4 C 13,4 C 0,4 km/h
27.06.2011 05:00 13,4 C 82 % 1022,7 hPa 0,0 l/m 0,0 km/h N 10,2 C 13,4 C 0,8 km/h
27.06.2011 06:00 14,5 C 80 % 1022,8 hPa 0,0 l/m 0,0 km/h N 11,1 C 14,5 C 0,4 km/h
27.06.2011 07:00 15,6 C 80 % 1022,8 hPa 0,0 l/m 0,0 km/h N 12,1 C 15,6 C 1,6 km/h
27.06.2011 08:00 17,3 C 81 % 1022,7 hPa 0,0 l/m 1,5 km/h N-NW 14,0 C 17,3 C 5,2 km/h
27.06.2011 09:00 19,5 C 75 % 1022,6 hPa 0,0 l/m 1,2 km/h N 14,9 C 19,5 C 6,0 km/h
27.06.2011 10:00 21,6 C 66 % 1022,2 hPa 0,0 l/m 1,4 km/h N-NW 15,0 C 21,6 C 6,0 km/h
27.06.2011 11:00 24,8 C 56 % 1021,7 hPa 0,0 l/m 2,5 km/h N-NW 15,2 C 24,8 C 6,4 km/h
27.06.2011 12:00 26,5 C 49 % 1021,2 hPa 0,0 l/m 3,4 km/h N 15,0 C 26,5 C 8,8 km/h
27.06.2011 13:00 28,1 C 48 % 1020,5 hPa 0,0 l/m 3,0 km/h N-NW 16,0 C 28,1 C 9,3 km/h
27.06.2011 14:00 28,2 C 47 % 1019,8 hPa 0,0 l/m 2,9 km/h N 15,7 C 28,2 C 8,0 km/h
27.06.2011 15:00 29,0 C 45 % 1019,1 hPa 0,0 l/m 4,1 km/h N-NW 15,9 C 29,0 C 12,9 km/h
27.06.2011 16:00 29,6 C 43 % 1018,7 hPa 0,0 l/m 4,5 km/h N-NW 15,8 C 29,6 C 11,3 km/h
27.06.2011 17:00 29,5 C 44 % 1018,1 hPa 0,0 l/m 3,6 km/h NO 15,9 C 29,5 C 9,3 km/h
27.06.2011 18:00 28,1 C 46 % 1017,8 hPa 0,0 l/m 2,7 km/h N-NW 15,4 C 28,1 C 7,2 km/h
27.06.2011 19:00 25,8 C 51 % 1017,5 hPa 0,0 l/m 1,3 km/h NW 14,7 C 25,8 C 5,6 km/h
27.06.2011 20:00 25,0 C 55 % 1017,5 hPa 0,0 l/m 0,2 km/h N 15,1 C 25,0 C 2,4 km/h
27.06.2011 21:00 23,0 C 59 % 1018,0 hPa 0,0 l/m 0,3 km/h N 14,5 C 23,0 C 2,4 km/h
27.06.2011 22:00 21,6 C 63 % 1018,1 hPa 0,0 l/m 0,0 km/h N 14,4 C 21,6 C 0,8 km/h
27.06.2011 23:00 20,7 C 66 % 1018,3 hPa 0,0 l/m 0,2 km/h N 14,1 C 20,7 C 2,0 km/h
28.06.2011 00:00 20,0 C 70 % 1018,3 hPa 0,0 l/m 0,0 km/h N 14,4 C 20,0 C 1,2 km/h
28.06.2011 01:00 19,2 C 70 % 1018,3 hPa 0,0 l/m 0,1 km/h N 13,7 C 19,2 C 1,6 km/h
28.06.2011 02:00 18,7 C 67 % 1018,3 hPa 0,0 l/m 0,1 km/h N 12,4 C 18,7 C 1,6 km/h
28.06.2011 03:00 18,0 C 64 % 1018,2 hPa 0,0 l/m 0,3 km/h N 11,1 C 18,0 C 2,0 km/h
28.06.2011 04:00 17,7 C 64 % 1018,0 hPa 0,0 l/m 0,4 km/h N 10,7 C 17,7 C 2,4 km/h
28.06.2011 05:00 17,0 C 65 % 1018,0 hPa 0,0 l/m 0,8 km/h N-NW 10,3 C 17,0 C 3,2 km/h
28.06.2011 06:00 17,1 C 67 % 1018,2 hPa 0,0 l/m 1,4 km/h N-NW 10,8 C 17,1 C 5,2 km/h
28.06.2011 07:00 17,6 C 66 % 1018,6 hPa 0,0 l/m 1,9 km/h N-NW 11,1 C 17,6 C 5,6 km/h
28.06.2011 08:00 18,6 C 61 % 1018,5 hPa 0,0 l/m 2,7 km/h N-NW 11,0 C 18,6 C 8,0 km/h
28.06.2011 09:00 19,7 C 54 % 1018,2 hPa 0,0 l/m 4,1 km/h N-NO 10,0 C 19,7 C 12,1 km/h
28.06.2011 10:00 22,3 C 48 % 1018,0 hPa 0,0 l/m 5,6 km/h N-NW 10,6 C 22,3 C 13,7 km/h
28.06.2011 11:00 25,3 C 41 % 1017,5 hPa 0,0 l/m 6,2 km/h N-NO 10,8 C 25,2 C 17,3 km/h
28.06.2011 12:00 26,8 C 38 % 1017,0 hPa 0,0 l/m 7,1 km/h N-NO 11,3 C 26,6 C 20,9 km/h
28.06.2011 13:00 27,8 C 36 % 1016,4 hPa 0,0 l/m 7,4 km/h NW 11,1 C 27,6 C 19,7 km/h
28.06.2011 14:00 28,9 C 35 % 1015,6 hPa 0,0 l/m 7,4 km/h N-NW 12,0 C 28,8 C 20,5 km/h
28.06.2011 15:00 29,1 C 34 % 1015,3 hPa 0,0 l/m 8,8 km/h N-NW 11,6 C 28,8 C 22,1 km/h
28.06.2011 16:00 29,2 C 33 % 1014,9 hPa 0,0 l/m 8,0 km/h N-NW 11,2 C 29,0 C 23,3 km/h
28.06.2011 17:00 29,2 C 31 % 1014,6 hPa 0,0 l/m 6,5 km/h N-NO 10,2 C 29,2 C 15,3 km/h
28.06.2011 18:00 28,0 C 33 % 1014,3 hPa 0,0 l/m 5,6 km/h N-NO 10,1 C 28,0 C 14,9 km/h
28.06.2011 19:00 26,1 C 35 % 1014,2 hPa 0,0 l/m 4,4 km/h N-NW 9,5 C 26,1 C 10,9 km/h
28.06.2011 20:00 24,6 C 40 % 1014,4 hPa 0,0 l/m 1,3 km/h N 9,9 C 24,6 C 6,0 km/h
28.06.2011 21:00 22,5 C 45 % 1014,7 hPa 0,0 l/m 0,3 km/h N 9,9 C 22,5 C 2,0 km/h
28.06.2011 22:00 20,5 C 50 % 1014,9 hPa 0,0 l/m 0,4 km/h N 9,7 C 20,5 C 2,4 km/h
28.06.2011 23:00 19,5 C 51 % 1014,7 hPa 0,0 l/m 0,4 km/h N 8,9 C 19,5 C 2,4 km/h
29.06.2011 00:00 18,8 C 52 % 1014,3 hPa 0,0 l/m 0,8 km/h N-NW 8,7 C 18,8 C 3,2 km/h
29.06.2011 01:00 18,4 C 52 % 1013,7 hPa 0,0 l/m 0,7 km/h N 8,4 C 18,4 C 2,8 km/h
29.06.2011 02:00 18,3 C 52 % 1014,1 hPa 0,0 l/m 0,7 km/h N-NO 8,3 C 18,3 C 4,0 km/h
29.06.2011 03:00 18,4 C 52 % 1014,2 hPa 0,0 l/m 0,8 km/h N 8,2 C 18,4 C 4,4 km/h
29.06.2011 04:00 18,2 C 52 % 1014,1 hPa 0,0 l/m 1,0 km/h NW 8,1 C 18,2 C 5,2 km/h
29.06.2011 05:00 18,2 C 53 % 1013,6 hPa 0,0 l/m 1,6 km/h W-NW 8,3 C 18,2 C 6,0 km/h
29.06.2011 06:00 18,4 C 54 % 1013,4 hPa 0,0 l/m 1,3 km/h NW 8,9 C 18,4 C 6,8 km/h
29.06.2011 07:00 19,5 C 53 % 1013,3 hPa 0,0 l/m 2,7 km/h NW 9,6 C 19,5 C 8,4 km/h
29.06.2011 08:00 20,4 C 52 % 1013,5 hPa 0,0 l/m 4,0 km/h NW 10,2 C 20,4 C 12,9 km/h
29.06.2011 09:00 21,5 C 51 % 1013,2 hPa 0,0 l/m 3,1 km/h N-NW 11,0 C 21,5 C 10,9 km/h
29.06.2011 10:00 24,2 C 46 % 1012,8 hPa 0,0 l/m 4,4 km/h N-NW 11,9 C 24,2 C 12,9 km/h
29.06.2011 11:00 27,6 C 40 % 1012,4 hPa 0,0 l/m 6,3 km/h NO 12,6 C 27,6 C 16,5 km/h
29.06.2011 12:00 29,5 C 38 % 1011,9 hPa 0,0 l/m 5,7 km/h N-NW 13,6 C 29,5 C 16,1 km/h
29.06.2011 13:00 31,0 C 37 % 1011,5 hPa 0,0 l/m 5,6 km/h NW 14,6 C 31,0 C 16,5 km/h
29.06.2011 14:00 32,2 C 35 % 1011,3 hPa 0,0 l/m 6,0 km/h N-NO 14,6 C 32,2 C 15,7 km/h
29.06.2011 15:00 32,7 C 34 % 1010,8 hPa 0,0 l/m 4,8 km/h N-NW 14,8 C 32,7 C 15,3 km/h
29.06.2011 16:00 32,5 C 34 % 1010,3 hPa 0,0 l/m 6,3 km/h N 14,4 C 32,5 C 16,5 km/h
29.06.2011 17:00 32,5 C 34 % 1010,0 hPa 0,0 l/m 4,8 km/h NW 14,5 C 32,5 C 15,7 km/h
29.06.2011 18:00 31,6 C 36 % 1009,7 hPa 0,0 l/m 2,8 km/h N-NW 14,7 C 31,6 C 7,6 km/h
29.06.2011 19:00 29,2 C 39 % 1009,6 hPa 0,0 l/m 2,6 km/h W-NW 13,9 C 29,2 C 8,0 km/h
29.06.2011 20:00 27,6 C 41 % 1009,8 hPa 0,0 l/m 0,8 km/h N 13,0 C 27,6 C 4,0 km/h
29.06.2011 21:00 25,8 C 44 % 1010,1 hPa 0,0 l/m 0,2 km/h N 12,5 C 25,8 C 2,0 km/h
29.06.2011 22:00 23,5 C 49 % 1010,3 hPa 0,0 l/m 0,0 km/h N 12,2 C 23,5 C 0,0 km/h
29.06.2011 23:00 21,4 C 55 % 1010,3 hPa 0,0 l/m 0,0 km/h N 12,1 C 21,4 C 0,4 km/h
30.06.2011 00:00 20,2 C 60 % 1010,0 hPa 0,0 l/m 0,0 km/h N 12,1 C 20,2 C 0,0 km/h
30.06.2011 01:00 18,7 C 66 % 1009,9 hPa 0,0 l/m 0,0 km/h N 12,1 C 18,7 C 0,0 km/h
30.06.2011 02:00 18,3 C 67 % 1009,4 hPa 0,0 l/m 0,0 km/h N 12,1 C 18,3 C 0,0 km/h
30.06.2011 03:00 18,2 C 68 % 1009,0 hPa 0,0 l/m 0,0 km/h N 12,1 C 18,2 C 0,0 km/h
30.06.2011 04:00 18,2 C 65 % 1008,7 hPa 0,0 l/m 0,0 km/h N 11,5 C 18,2 C 0,0 km/h
30.06.2011 05:00 18,7 C 69 % 1008,5 hPa 0,0 l/m 0,0 km/h N 12,8 C 18,7 C 1,2 km/h
30.06.2011 06:00 20,6 C 72 % 1008,5 hPa 0,0 l/m 0,6 km/h S 15,4 C 20,6 C 6,4 km/h
30.06.2011 07:00 22,1 C 70 % 1008,4 hPa 0,0 l/m 3,8 km/h SW 16,4 C 22,1 C 18,1 km/h
30.06.2011 08:00 23,4 C 68 % 1008,4 hPa 0,0 l/m 4,6 km/h NW 17,1 C 23,4 C 25,7 km/h
30.06.2011 09:00 24,3 C 65 % 1008,6 hPa 0,0 l/m 5,2 km/h S-SO 17,1 C 24,3 C 24,1 km/h
30.06.2011 10:00 26,3 C 56 % 1008,7 hPa 0,0 l/m 5,8 km/h SW 16,6 C 26,3 C 26,2 km/h
30.06.2011 11:00 27,7 C 51 % 1008,8 hPa 0,0 l/m 6,7 km/h NW 16,5 C 27,6 C 24,1 km/h
30.06.2011 12:00 28,3 C 50 % 1008,6 hPa 0,0 l/m 7,1 km/h W-SW 16,8 C 28,2 C 25,8 km/h
30.06.2011 13:00 28,3 C 49 % 1008,4 hPa 0,0 l/m 8,5 km/h SW 16,6 C 28,0 C 29,0 km/h
30.06.2011 14:00 27,9 C 49 % 1008,7 hPa 0,0 l/m 9,3 km/h S 16,2 C 27,4 C 31,8 km/h
30.06.2011 15:00 25,3 C 53 % 1008,9 hPa 0,0 l/m 13,1 km/h W-SW 15,0 C 24,0 C 42,3 km/h
30.06.2011 16:00 22,5 C 57 % 1010,0 hPa 0,0 l/m 13,3 km/h SW 13,6 C 20,6 C 43,0 km/h
30.06.2011 17:00 19,6 C 64 % 1012,2 hPa 0,0 l/m 11,1 km/h SW 12,5 C 17,8 C 37,0 km/h
30.06.2011 18:00 17,7 C 70 % 1013,1 hPa 0,0 l/m 11,8 km/h SW 12,1 C 15,5 C 35,0 km/h
30.06.2011 19:00 16,4 C 73 % 1014,3 hPa 0,0 l/m 9,9 km/h W 11,5 C 14,7 C 35,8 km/h
30.06.2011 20:00 15,5 C 73 % 1015,1 hPa 0,0 l/m 10,4 km/h W-SW 10,5 C 13,5 C 30,2 km/h
30.06.2011 21:00 15,3 C 72 % 1015,2 hPa 0,0 l/m 9,9 km/h N-NO 10,2 C 13,5 C 27,8 km/h
30.06.2011 22:00 15,0 C 73 % 1015,9 hPa 0,0 l/m 9,6 km/h N-NW 10,2 C 13,3 C 30,2 km/h
30.06.2011 23:00 14,8 C 74 % 1016,7 hPa 0,0 l/m 6,4 km/h N-NW 10,2 C 14,7 C 23,3 km/h
01.07.2011 00:00 14,8 C 72 % 1016,6 hPa 0,0 l/m 7,2 km/h NW 9,8 C 14,3 C 24,9 km/h
01.07.2011 01:00 14,8 C 69 % 1016,2 hPa 0,0 l/m 7,2 km/h W-SW 9,1 C 14,4 C 25,7 km/h
01.07.2011 02:00 14,9 C 65 % 1016,1 hPa 0,0 l/m 5,6 km/h NW 8,4 C 14,9 C 22,9 km/h
01.07.2011 03:00 14,8 C 63 % 1016,5 hPa 0,0 l/m 5,1 km/h N-NO 7,9 C 14,8 C 19,7 km/h
01.07.2011 04:00 14,6 C 64 % 1016,8 hPa 0,0 l/m 5,3 km/h N-NW 7,8 C 14,6 C 19,3 km/h
01.07.2011 05:00 14,1 C 66 % 1017,2 hPa 0,0 l/m 4,9 km/h N-NW 7,8 C 14,1 C 17,3 km/h
01.07.2011 06:00 13,7 C 67 % 1017,4 hPa 0,0 l/m 3,0 km/h N-NW 7,7 C 13,7 C 12,1 km/h
01.07.2011 07:00 13,7 C 66 % 1017,3 hPa 0,0 l/m 7,1 km/h N-NW 7,4 C 12,9 C 22,9 km/h
01.07.2011 08:00 14,8 C 62 % 1017,2 hPa 0,0 l/m 7,1 km/h N-NW 7,5 C 14,4 C 23,3 km/h
01.07.2011 09:00 16,2 C 56 % 1016,9 hPa 0,0 l/m 8,4 km/h NW 7,5 C 15,1 C 22,1 km/h
01.07.2011 10:00 19,0 C 46 % 1016,8 hPa 0,0 l/m 10,2 km/h N-NO 7,0 C 17,5 C 24,5 km/h
01.07.2011 11:00 21,4 C 41 % 1016,3 hPa 0,0 l/m 9,9 km/h W-NW 7,4 C 20,2 C 23,7 km/h
01.07.2011 12:00 22,6 C 38 % 1015,8 hPa 0,0 l/m 9,2 km/h N-NO 7,6 C 21,7 C 23,3 km/h
01.07.2011 13:00 23,3 C 38 % 1015,1 hPa 0,0 l/m 6,5 km/h N-NW 8,0 C 23,2 C 18,5 km/h
01.07.2011 14:00 23,4 C 37 % 1014,5 hPa 0,0 l/m 6,0 km/h N-NO 7,9 C 23,4 C 18,5 km/h
01.07.2011 15:00 21,8 C 40 % 1014,5 hPa 0,0 l/m 5,2 km/h N-NW 7,3 C 21,6 C 16,5 km/h
01.07.2011 16:00 20,7 C 45 % 1014,3 hPa 0,0 l/m 3,5 km/h NW 8,4 C 20,7 C 16,1 km/h
01.07.2011 17:00 19,4 C 48 % 1014,5 hPa 0,0 l/m 3,3 km/h N-NW 8,1 C 19,4 C 16,1 km/h
01.07.2011 18:00 18,6 C 53 % 1014,6 hPa 0,3 l/m 2,5 km/h NW 8,9 C 18,6 C 7,6 km/h
01.07.2011 19:00 15,1 C 71 % 1015,2 hPa 0,3 l/m 3,7 km/h W-NW 9,9 C 15,1 C 14,5 km/h
01.07.2011 20:00 14,0 C 73 % 1015,1 hPa 0,0 l/m 4,3 km/h W-NW 9,1 C 14,0 C 20,5 km/h
01.07.2011 21:00 13,5 C 71 % 1015,1 hPa 0,0 l/m 6,5 km/h N-NW 8,4 C 13,3 C 25,3 km/h
01.07.2011 22:00 13,6 C 71 % 1014,8 hPa 0,0 l/m 7,0 km/h O-SO 8,4 C 13,3 C 25,4 km/h
01.07.2011 23:00 13,7 C 67 % 1014,7 hPa 0,0 l/m 7,8 km/h O-NO 7,6 C 12,9 C 32,6 km/h
02.07.2011 00:00 13,1 C 68 % 1014,8 hPa 0,0 l/m 7,3 km/h W-SW 7,3 C 12,5 C 26,6 km/h
02.07.2011 01:00 12,2 C 75 % 1014,7 hPa 0,0 l/m 6,9 km/h SW 7,9 C 11,8 C 27,3 km/h
02.07.2011 02:00 12,3 C 75 % 1014,4 hPa 0,0 l/m 6,1 km/h W 8,0 C 12,2 C 28,6 km/h
02.07.2011 03:00 12,4 C 74 % 1014,1 hPa 0,0 l/m 4,5 km/h SO 7,9 C 12,4 C 20,5 km/h
02.07.2011 04:00 12,3 C 75 % 1013,8 hPa 0,0 l/m 4,9 km/h W 7,9 C 12,3 C 23,7 km/h
02.07.2011 05:00 12,3 C 76 % 1013,6 hPa 0,0 l/m 5,0 km/h S 8,1 C 12,3 C 23,3 km/h
02.07.2011 06:00 12,3 C 75 % 1013,6 hPa 0,0 l/m 3,1 km/h S-SW 8,0 C 12,3 C 16,9 km/h
02.07.2011 07:00 13,0 C 74 % 1013,6 hPa 0,0 l/m 3,5 km/h W-NW 8,5 C 13,0 C 16,5 km/h
02.07.2011 08:00 13,3 C 75 % 1013,7 hPa 0,0 l/m 4,4 km/h SW 8,9 C 13,3 C 18,9 km/h
02.07.2011 09:00 14,0 C 72 % 1013,7 hPa 0,0 l/m 4,6 km/h S 9,0 C 14,0 C 23,3 km/h
02.07.2011 10:00 16,4 C 64 % 1013,4 hPa 0,0 l/m 4,6 km/h S-SW 9,5 C 16,4 C 20,5 km/h
02.07.2011 11:00 17,2 C 59 % 1013,1 hPa 0,0 l/m 4,8 km/h SW 9,1 C 17,1 C 18,5 km/h
02.07.2011 12:00 17,3 C 59 % 1012,8 hPa 0,0 l/m 3,6 km/h N-NO 9,0 C 17,3 C 13,7 km/h
02.07.2011 13:00 18,4 C 52 % 1012,1 hPa 0,0 l/m 4,0 km/h NW 8,3 C 18,4 C 15,3 km/h
02.07.2011 14:00 16,9 C 62 % 1012,4 hPa 2,6 l/m 5,3 km/h S 9,3 C 16,8 C 20,9 km/h
02.07.2011 15:00 13,5 C 78 % 1012,2 hPa 0,5 l/m 1,9 km/h S-SW 9,6 C 13,5 C 13,3 km/h
02.07.2011 16:00 15,5 C 72 % 1011,7 hPa 0,0 l/m 2,3 km/h S 10,4 C 15,5 C 12,5 km/h
02.07.2011 17:00 17,2 C 64 % 1011,1 hPa 0,3 l/m 3,8 km/h S 10,2 C 17,2 C 18,1 km/h
02.07.2011 18:00 16,5 C 61 % 1011,3 hPa 0,0 l/m 4,6 km/h W-SW 8,9 C 16,5 C 19,7 km/h
02.07.2011 19:00 15,3 C 64 % 1011,0 hPa 0,0 l/m 3,1 km/h W-SW 8,5 C 15,3 C 16,1 km/h
02.07.2011 20:00 15,4 C 62 % 1011,0 hPa 0,0 l/m 4,8 km/h SW 8,2 C 15,4 C 22,5 km/h
02.07.2011 21:00 14,4 C 64 % 1011,4 hPa 0,0 l/m 2,4 km/h S-SW 7,5 C 14,4 C 15,3 km/h
02.07.2011 22:00 13,3 C 69 % 1011,6 hPa 0,0 l/m 1,6 km/h S-SW 7,7 C 13,3 C 10,5 km/h
02.07.2011 23:00 12,5 C 71 % 1011,6 hPa 0,0 l/m 2,4 km/h SW 7,4 C 12,5 C 10,5 km/h
03.07.2011 00:00 12,9 C 69 % 1011,2 hPa 0,0 l/m 4,0 km/h S 7,2 C 12,9 C 16,1 km/h
03.07.2011 01:00 13,6 C 64 % 1010,8 hPa 0,0 l/m 3,2 km/h SW 7,0 C 13,6 C 21,7 km/h
03.07.2011 02:00 13,5 C 66 % 1010,5 hPa 0,0 l/m 1,6 km/h S-SW 7,2 C 13,5 C 12,9 km/h
03.07.2011 03:00 13,6 C 65 % 1010,3 hPa 0,0 l/m 2,4 km/h S-SW 7,2 C 13,6 C 17,7 km/h
03.07.2011 04:00 13,6 C 66 % 1009,8 hPa 0,0 l/m 3,2 km/h SW 7,3 C 13,6 C 16,9 km/h
03.07.2011 05:00 13,7 C 65 % 1009,2 hPa 0,0 l/m 2,3 km/h S 7,2 C 13,7 C 12,9 km/h
03.07.2011 06:00 13,8 C 64 % 1008,7 hPa 0,0 l/m 2,6 km/h SW 7,0 C 13,8 C 9,3 km/h
03.07.2011 07:00 14,6 C 61 % 1008,6 hPa 0,0 l/m 4,1 km/h W-SW 7,1 C 14,6 C 18,8 km/h
03.07.2011 08:00 14,9 C 61 % 1008,6 hPa 0,0 l/m 5,2 km/h O-SO 7,4 C 14,9 C 24,1 km/h
03.07.2011 09:00 14,8 C 61 % 1008,5 hPa 0,0 l/m 8,5 km/h S-SW 7,2 C 13,6 C 30,6 km/h
03.07.2011 10:00 14,1 C 68 % 1008,3 hPa 0,0 l/m 5,9 km/h SW 8,2 C 13,9 C 25,4 km/h
03.07.2011 11:00 14,3 C 66 % 1007,9 hPa 0,3 l/m 4,9 km/h SW 8,1 C 14,3 C 23,3 km/h
03.07.2011 12:00 15,9 C 58 % 1007,1 hPa 0,0 l/m 8,9 km/h W-SW 7,7 C 14,6 C 34,2 km/h
03.07.2011 13:00 15,8 C 63 % 1006,8 hPa 0,0 l/m 8,3 km/h W 8,7 C 14,8 C 27,8 km/h
03.07.2011 14:00 14,9 C 70 % 1007,0 hPa 0,0 l/m 8,8 km/h SO 9,4 C 13,6 C 33,0 km/h
03.07.2011 15:00 14,1 C 73 % 1006,6 hPa 0,3 l/m 11,7 km/h S-SO 9,2 C 11,3 C 40,2 km/h
03.07.2011 16:00 16,0 C 63 % 1006,6 hPa 0,0 l/m 12,9 km/h SW 9,0 C 13,1 C 45,1 km/h
03.07.2011 17:00 14,9 C 71 % 1006,9 hPa 0,5 l/m 13,3 km/h W-NW 9,7 C 11,6 C 44,3 km/h
03.07.2011 18:00 15,1 C 70 % 1007,4 hPa 0,0 l/m 12,6 km/h W 9,6 C 12,2 C 44,7 km/h
03.07.2011 19:00 15,1 C 68 % 1007,2 hPa 0,0 l/m 13,1 km/h W 9,3 C 12,0 C 40,3 km/h
03.07.2011 20:00 14,8 C 72 % 1007,9 hPa 0,3 l/m 10,8 km/h W 9,7 C 12,5 C 38,2 km/h
03.07.2011 21:00 14,8 C 72 % 1008,3 hPa 0,0 l/m 9,5 km/h W-NW 9,8 C 13,1 C 39,4 km/h
03.07.2011 22:00 14,7 C 73 % 1008,8 hPa 0,0 l/m 8,7 km/h S 10,0 C 13,5 C 29,8 km/h
03.07.2011 23:00 14,9 C 74 % 1009,5 hPa 0,0 l/m 8,4 km/h SW 10,2 C 13,8 C 27,0 km/h
Min-Datum _ 02.07.11 28.06.11 03.07.11 - 27.06.11 - 01.07.11 03.07.11 27.06.11
_ Min-Zeit 01:15 17:30 15:30 - 00:00 - 10:00 17:30 00:00
Minimum _ 12,1 C 30 % 1006,4 hPa - 0,0 km/h - 6,9 C 10,4 C 0,0 km/h
Max-Datum _ 29.06.11 27.06.11 27.06.11 02.07.11 03.07.11 - 30.06.11 29.06.11 03.07.11
_ Max-Zeit 15:30 01:15 00:15 14:30 19:15 - 08:30 15:45 16:15
Maximum _ 32,8 C 82 % 1022,9 hPa 2,6 l/m 15,4 km/h
W
- 17,3 C 32,8 C 53,1 km/h
W
Durchschnitt _ 19,4 C 59 % 1013,8 hPa #5,2 l/m 4,5 km/h N-NW 10,7 C 19,1 C 16,0 km/h